sensor_id;sensor_type;location;lat;lon;timestamp;P1;durP1;ratioP1;P2;durP2;ratioP2
23747;SDS011;12054;53.662;10.126;2023-04-22T00:00:36;7.45;;;3.88;;
23747;SDS011;12054;53.662;10.126;2023-04-22T00:03:02;4.00;;;3.28;;
23747;SDS011;12054;53.662;10.126;2023-04-22T00:05:28;4.25;;;3.33;;
23747;SDS011;12054;53.662;10.126;2023-04-22T00:07:53;4.70;;;3.55;;
23747;SDS011;12054;53.662;10.126;2023-04-22T00:10:19;6.43;;;3.55;;
23747;SDS011;12054;53.662;10.126;2023-04-22T00:12:44;5.00;;;3.45;;
23747;SDS011;12054;53.662;10.126;2023-04-22T00:15:10;7.68;;;3.80;;
23747;SDS011;12054;53.662;10.126;2023-04-22T00:17:36;6.20;;;3.55;;
23747;SDS011;12054;53.662;10.126;2023-04-22T00:20:01;6.20;;;3.30;;
23747;SDS011;12054;53.662;10.126;2023-04-22T00:22:27;4.18;;;3.22;;
23747;SDS011;12054;53.662;10.126;2023-04-22T00:24:53;4.43;;;3.33;;
23747;SDS011;12054;53.662;10.126;2023-04-22T00:27:19;6.45;;;3.50;;
23747;SDS011;12054;53.662;10.126;2023-04-22T00:29:44;8.57;;;3.97;;
23747;SDS011;12054;53.662;10.126;2023-04-22T00:32:10;5.68;;;3.20;;
23747;SDS011;12054;53.662;10.126;2023-04-22T00:34:35;7.07;;;3.75;;
23747;SDS011;12054;53.662;10.126;2023-04-22T00:37:01;6.15;;;3.53;;
23747;SDS011;12054;53.662;10.126;2023-04-22T00:39:26;6.28;;;4.05;;
23747;SDS011;12054;53.662;10.126;2023-04-22T00:41:52;5.15;;;3.83;;
23747;SDS011;12054;53.662;10.126;2023-04-22T00:44:18;6.35;;;3.45;;
23747;SDS011;12054;53.662;10.126;2023-04-22T00:46:44;4.40;;;3.60;;
23747;SDS011;12054;53.662;10.126;2023-04-22T00:49:10;4.70;;;3.17;;
23747;SDS011;12054;53.662;10.126;2023-04-22T00:51:36;6.32;;;3.78;;
23747;SDS011;12054;53.662;10.126;2023-04-22T00:54:01;5.88;;;3.97;;
23747;SDS011;12054;53.662;10.126;2023-04-22T00:56:28;4.95;;;3.67;;
23747;SDS011;12054;53.662;10.126;2023-04-22T00:58:55;8.32;;;3.88;;
23747;SDS011;12054;53.662;10.126;2023-04-22T01:01:22;5.15;;;3.53;;
23747;SDS011;12054;53.662;10.126;2023-04-22T01:03:48;5.15;;;3.38;;
23747;SDS011;12054;53.662;10.126;2023-04-22T01:06:15;5.15;;;3.83;;
23747;SDS011;12054;53.662;10.126;2023-04-22T01:08:43;5.15;;;3.75;;
23747;SDS011;12054;53.662;10.126;2023-04-22T01:11:09;5.00;;;4.13;;
23747;SDS011;12054;53.662;10.126;2023-04-22T01:13:35;5.50;;;3.80;;
23747;SDS011;12054;53.662;10.126;2023-04-22T01:16:02;6.55;;;4.25;;
23747;SDS011;12054;53.662;10.126;2023-04-22T01:18:32;6.43;;;4.18;;
23747;SDS011;12054;53.662;10.126;2023-04-22T01:20:59;5.15;;;3.70;;
23747;SDS011;12054;53.662;10.126;2023-04-22T01:23:26;6.00;;;3.60;;
23747;SDS011;12054;53.662;10.126;2023-04-22T01:25:52;6.25;;;3.92;;
23747;SDS011;12054;53.662;10.126;2023-04-22T01:28:17;5.35;;;3.90;;
23747;SDS011;12054;53.662;10.126;2023-04-22T01:30:43;7.15;;;4.70;;
23747;SDS011;12054;53.662;10.126;2023-04-22T01:33:09;7.10;;;4.55;;
23747;SDS011;12054;53.662;10.126;2023-04-22T01:35:36;6.40;;;4.20;;
23747;SDS011;12054;53.662;10.126;2023-04-22T01:38:05;8.40;;;3.72;;
23747;SDS011;12054;53.662;10.126;2023-04-22T01:40:32;8.85;;;4.55;;
23747;SDS011;12054;53.662;10.126;2023-04-22T01:42:58;6.50;;;4.53;;
23747;SDS011;12054;53.662;10.126;2023-04-22T01:45:25;5.07;;;4.15;;
23747;SDS011;12054;53.662;10.126;2023-04-22T01:47:51;5.45;;;4.07;;
23747;SDS011;12054;53.662;10.126;2023-04-22T01:50:16;5.65;;;4.20;;
23747;SDS011;12054;53.662;10.126;2023-04-22T01:52:42;8.35;;;4.40;;
23747;SDS011;12054;53.662;10.126;2023-04-22T01:55:08;7.05;;;4.95;;
23747;SDS011;12054;53.662;10.126;2023-04-22T01:57:34;7.03;;;4.38;;
23747;SDS011;12054;53.662;10.126;2023-04-22T01:59:59;5.70;;;4.50;;
23747;SDS011;12054;53.662;10.126;2023-04-22T02:02:25;8.52;;;4.63;;
23747;SDS011;12054;53.662;10.126;2023-04-22T02:04:51;6.32;;;4.38;;
23747;SDS011;12054;53.662;10.126;2023-04-22T02:07:16;7.10;;;4.40;;
23747;SDS011;12054;53.662;10.126;2023-04-22T02:09:42;8.95;;;4.78;;
23747;SDS011;12054;53.662;10.126;2023-04-22T02:12:08;6.82;;;4.47;;
23747;SDS011;12054;53.662;10.126;2023-04-22T02:14:33;7.75;;;4.70;;
23747;SDS011;12054;53.662;10.126;2023-04-22T02:16:59;8.65;;;4.68;;
23747;SDS011;12054;53.662;10.126;2023-04-22T02:19:26;6.72;;;4.22;;
23747;SDS011;12054;53.662;10.126;2023-04-22T02:21:52;6.38;;;4.93;;
23747;SDS011;12054;53.662;10.126;2023-04-22T02:24:17;10.10;;;5.18;;
23747;SDS011;12054;53.662;10.126;2023-04-22T02:26:43;6.68;;;5.10;;
23747;SDS011;12054;53.662;10.126;2023-04-22T02:29:08;6.85;;;4.43;;
23747;SDS011;12054;53.662;10.126;2023-04-22T02:31:34;10.73;;;5.00;;
23747;SDS011;12054;53.662;10.126;2023-04-22T02:33:59;6.70;;;4.38;;
23747;SDS011;12054;53.662;10.126;2023-04-22T02:36:25;7.82;;;5.13;;
23747;SDS011;12054;53.662;10.126;2023-04-22T02:38:51;5.57;;;4.78;;
23747;SDS011;12054;53.662;10.126;2023-04-22T02:41:17;9.98;;;5.53;;
23747;SDS011;12054;53.662;10.126;2023-04-22T02:43:42;6.63;;;4.93;;
23747;SDS011;12054;53.662;10.126;2023-04-22T02:46:10;6.60;;;5.20;;
23747;SDS011;12054;53.662;10.126;2023-04-22T02:48:37;6.53;;;5.03;;
23747;SDS011;12054;53.662;10.126;2023-04-22T02:51:03;7.38;;;5.20;;
23747;SDS011;12054;53.662;10.126;2023-04-22T02:53:30;8.02;;;5.60;;
23747;SDS011;12054;53.662;10.126;2023-04-22T02:55:55;8.55;;;5.13;;
23747;SDS011;12054;53.662;10.126;2023-04-22T02:58:22;8.00;;;5.40;;
23747;SDS011;12054;53.662;10.126;2023-04-22T03:00:48;8.30;;;5.38;;
23747;SDS011;12054;53.662;10.126;2023-04-22T03:03:14;9.13;;;5.43;;
23747;SDS011;12054;53.662;10.126;2023-04-22T03:05:39;6.82;;;5.07;;
23747;SDS011;12054;53.662;10.126;2023-04-22T03:08:05;8.27;;;5.20;;
23747;SDS011;12054;53.662;10.126;2023-04-22T03:10:30;7.07;;;5.55;;
23747;SDS011;12054;53.662;10.126;2023-04-22T03:12:56;10.02;;;5.40;;
23747;SDS011;12054;53.662;10.126;2023-04-22T03:15:22;7.40;;;5.82;;
23747;SDS011;12054;53.662;10.126;2023-04-22T03:17:47;7.43;;;5.38;;
23747;SDS011;12054;53.662;10.126;2023-04-22T03:20:13;8.00;;;5.40;;
23747;SDS011;12054;53.662;10.126;2023-04-22T03:22:39;9.57;;;5.05;;
23747;SDS011;12054;53.662;10.126;2023-04-22T03:25:05;6.65;;;4.90;;
23747;SDS011;12054;53.662;10.126;2023-04-22T03:27:31;7.57;;;5.22;;
23747;SDS011;12054;53.662;10.126;2023-04-22T03:29:56;9.50;;;5.50;;
23747;SDS011;12054;53.662;10.126;2023-04-22T03:32:22;8.18;;;5.20;;
23747;SDS011;12054;53.662;10.126;2023-04-22T03:34:47;8.90;;;6.10;;
23747;SDS011;12054;53.662;10.126;2023-04-22T03:37:13;7.10;;;5.47;;
23747;SDS011;12054;53.662;10.126;2023-04-22T03:39:38;8.90;;;5.90;;
23747;SDS011;12054;53.662;10.126;2023-04-22T03:42:04;8.07;;;5.55;;
23747;SDS011;12054;53.662;10.126;2023-04-22T03:44:30;7.43;;;5.20;;
23747;SDS011;12054;53.662;10.126;2023-04-22T03:46:55;6.95;;;5.65;;
23747;SDS011;12054;53.662;10.126;2023-04-22T03:49:21;7.80;;;6.03;;
23747;SDS011;12054;53.662;10.126;2023-04-22T03:51:46;9.55;;;5.78;;
23747;SDS011;12054;53.662;10.126;2023-04-22T03:54:12;6.43;;;5.47;;
23747;SDS011;12054;53.662;10.126;2023-04-22T03:56:37;7.75;;;5.95;;
23747;SDS011;12054;53.662;10.126;2023-04-22T03:59:03;9.73;;;5.88;;
23747;SDS011;12054;53.662;10.126;2023-04-22T04:01:28;7.63;;;5.70;;
23747;SDS011;12054;53.662;10.126;2023-04-22T04:03:54;7.18;;;5.50;;
23747;SDS011;12054;53.662;10.126;2023-04-22T04:06:19;9.07;;;5.70;;
23747;SDS011;12054;53.662;10.126;2023-04-22T04:08:45;6.68;;;5.72;;
23747;SDS011;12054;53.662;10.126;2023-04-22T04:11:11;8.55;;;5.57;;
23747;SDS011;12054;53.662;10.126;2023-04-22T04:13:36;9.55;;;6.50;;
23747;SDS011;12054;53.662;10.126;2023-04-22T04:16:02;7.95;;;5.95;;
23747;SDS011;12054;53.662;10.126;2023-04-22T04:18:28;8.02;;;5.85;;
23747;SDS011;12054;53.662;10.126;2023-04-22T04:20:53;7.55;;;5.63;;
23747;SDS011;12054;53.662;10.126;2023-04-22T04:23:20;8.48;;;6.07;;
23747;SDS011;12054;53.662;10.126;2023-04-22T04:25:45;9.00;;;6.20;;
23747;SDS011;12054;53.662;10.126;2023-04-22T04:28:11;9.90;;;6.10;;
23747;SDS011;12054;53.662;10.126;2023-04-22T04:30:37;8.55;;;6.18;;
23747;SDS011;12054;53.662;10.126;2023-04-22T04:33:05;10.80;;;6.80;;
23747;SDS011;12054;53.662;10.126;2023-04-22T04:35:37;8.48;;;6.40;;
23747;SDS011;12054;53.662;10.126;2023-04-22T04:38:03;9.02;;;5.80;;
23747;SDS011;12054;53.662;10.126;2023-04-22T04:40:30;9.27;;;5.95;;
23747;SDS011;12054;53.662;10.126;2023-04-22T04:42:56;9.05;;;6.13;;
23747;SDS011;12054;53.662;10.126;2023-04-22T04:45:22;7.43;;;5.63;;
23747;SDS011;12054;53.662;10.126;2023-04-22T04:47:48;10.57;;;6.32;;
23747;SDS011;12054;53.662;10.126;2023-04-22T04:50:19;11.10;;;6.55;;
23747;SDS011;12054;53.662;10.126;2023-04-22T04:52:48;8.48;;;6.30;;
23747;SDS011;12054;53.662;10.126;2023-04-22T04:55:14;10.25;;;6.15;;
23747;SDS011;12054;53.662;10.126;2023-04-22T04:57:40;7.32;;;6.35;;
23747;SDS011;12054;53.662;10.126;2023-04-22T05:00:06;9.95;;;6.15;;
23747;SDS011;12054;53.662;10.126;2023-04-22T05:02:32;7.35;;;6.40;;
23747;SDS011;12054;53.662;10.126;2023-04-22T05:04:58;9.95;;;6.38;;
23747;SDS011;12054;53.662;10.126;2023-04-22T05:07:23;9.75;;;5.65;;
23747;SDS011;12054;53.662;10.126;2023-04-22T05:09:49;6.93;;;4.95;;
23747;SDS011;12054;53.662;10.126;2023-04-22T05:12:14;8.63;;;6.57;;
23747;SDS011;12054;53.662;10.126;2023-04-22T05:14:40;8.63;;;6.22;;
23747;SDS011;12054;53.662;10.126;2023-04-22T05:17:06;11.23;;;6.50;;
23747;SDS011;12054;53.662;10.126;2023-04-22T05:19:32;9.52;;;6.15;;
23747;SDS011;12054;53.662;10.126;2023-04-22T05:21:57;7.90;;;6.10;;
23747;SDS011;12054;53.662;10.126;2023-04-22T05:24:23;8.73;;;6.68;;
23747;SDS011;12054;53.662;10.126;2023-04-22T05:26:49;5.97;;;5.38;;
23747;SDS011;12054;53.662;10.126;2023-04-22T05:29:14;7.95;;;6.47;;
23747;SDS011;12054;53.662;10.126;2023-04-22T05:31:40;8.85;;;5.82;;
23747;SDS011;12054;53.662;10.126;2023-04-22T05:34:05;7.15;;;5.78;;
23747;SDS011;12054;53.662;10.126;2023-04-22T05:36:31;8.88;;;6.60;;
23747;SDS011;12054;53.662;10.126;2023-04-22T05:38:56;10.25;;;6.60;;
23747;SDS011;12054;53.662;10.126;2023-04-22T05:41:22;8.05;;;6.65;;
23747;SDS011;12054;53.662;10.126;2023-04-22T05:43:47;9.68;;;6.93;;
23747;SDS011;12054;53.662;10.126;2023-04-22T05:46:13;9.80;;;6.40;;
23747;SDS011;12054;53.662;10.126;2023-04-22T05:48:39;9.30;;;6.70;;
23747;SDS011;12054;53.662;10.126;2023-04-22T05:51:04;8.18;;;6.70;;
23747;SDS011;12054;53.662;10.126;2023-04-22T05:53:30;9.00;;;6.78;;
23747;SDS011;12054;53.662;10.126;2023-04-22T05:55:55;10.10;;;7.32;;
23747;SDS011;12054;53.662;10.126;2023-04-22T05:58:21;9.52;;;7.05;;
23747;SDS011;12054;53.662;10.126;2023-04-22T06:00:46;10.77;;;5.72;;
23747;SDS011;12054;53.662;10.126;2023-04-22T06:03:12;7.78;;;6.07;;
23747;SDS011;12054;53.662;10.126;2023-04-22T06:05:37;10.15;;;7.20;;
23747;SDS011;12054;53.662;10.126;2023-04-22T06:08:03;9.43;;;6.57;;
23747;SDS011;12054;53.662;10.126;2023-04-22T06:10:28;8.70;;;6.57;;
23747;SDS011;12054;53.662;10.126;2023-04-22T06:12:54;9.23;;;6.93;;
23747;SDS011;12054;53.662;10.126;2023-04-22T06:15:20;8.48;;;6.50;;
23747;SDS011;12054;53.662;10.126;2023-04-22T06:17:46;8.13;;;6.90;;
23747;SDS011;12054;53.662;10.126;2023-04-22T06:20:12;10.23;;;6.72;;
23747;SDS011;12054;53.662;10.126;2023-04-22T06:22:38;9.20;;;6.70;;
23747;SDS011;12054;53.662;10.126;2023-04-22T06:25:03;9.48;;;6.95;;
23747;SDS011;12054;53.662;10.126;2023-04-22T06:27:29;10.50;;;6.90;;
23747;SDS011;12054;53.662;10.126;2023-04-22T06:29:55;10.10;;;7.15;;
23747;SDS011;12054;53.662;10.126;2023-04-22T06:32:20;11.77;;;7.72;;
23747;SDS011;12054;53.662;10.126;2023-04-22T06:34:46;7.50;;;6.53;;
23747;SDS011;12054;53.662;10.126;2023-04-22T06:37:11;9.57;;;6.53;;
23747;SDS011;12054;53.662;10.126;2023-04-22T06:39:36;8.65;;;7.10;;
23747;SDS011;12054;53.662;10.126;2023-04-22T06:42:02;7.50;;;6.30;;
23747;SDS011;12054;53.662;10.126;2023-04-22T06:44:28;8.75;;;6.80;;
23747;SDS011;12054;53.662;10.126;2023-04-22T06:46:53;9.90;;;7.07;;
23747;SDS011;12054;53.662;10.126;2023-04-22T06:49:19;9.30;;;6.97;;
23747;SDS011;12054;53.662;10.126;2023-04-22T06:51:45;7.95;;;6.95;;
23747;SDS011;12054;53.662;10.126;2023-04-22T06:54:10;10.45;;;7.55;;
23747;SDS011;12054;53.662;10.126;2023-04-22T06:56:36;10.23;;;6.72;;
23747;SDS011;12054;53.662;10.126;2023-04-22T06:59:01;11.32;;;7.35;;
23747;SDS011;12054;53.662;10.126;2023-04-22T07:01:27;10.25;;;7.32;;
23747;SDS011;12054;53.662;10.126;2023-04-22T07:03:52;10.65;;;7.38;;
23747;SDS011;12054;53.662;10.126;2023-04-22T07:06:18;10.50;;;7.28;;
23747;SDS011;12054;53.662;10.126;2023-04-22T07:08:43;10.95;;;6.72;;
23747;SDS011;12054;53.662;10.126;2023-04-22T07:11:09;11.60;;;6.72;;
23747;SDS011;12054;53.662;10.126;2023-04-22T07:13:34;11.32;;;7.07;;
23747;SDS011;12054;53.662;10.126;2023-04-22T07:16:00;10.07;;;6.78;;
23747;SDS011;12054;53.662;10.126;2023-04-22T07:18:26;8.40;;;6.45;;
23747;SDS011;12054;53.662;10.126;2023-04-22T07:20:52;8.75;;;6.63;;
23747;SDS011;12054;53.662;10.126;2023-04-22T07:23:18;8.63;;;6.72;;
23747;SDS011;12054;53.662;10.126;2023-04-22T07:25:43;10.77;;;6.78;;
23747;SDS011;12054;53.662;10.126;2023-04-22T07:28:09;8.48;;;6.20;;
23747;SDS011;12054;53.662;10.126;2023-04-22T07:30:34;8.18;;;6.10;;
23747;SDS011;12054;53.662;10.126;2023-04-22T07:33:00;10.20;;;6.40;;
23747;SDS011;12054;53.662;10.126;2023-04-22T07:35:26;8.57;;;6.60;;
23747;SDS011;12054;53.662;10.126;2023-04-22T07:37:52;12.63;;;6.68;;
23747;SDS011;12054;53.662;10.126;2023-04-22T07:40:18;7.82;;;6.05;;
23747;SDS011;12054;53.662;10.126;2023-04-22T07:42:44;7.68;;;6.43;;
23747;SDS011;12054;53.662;10.126;2023-04-22T07:45:09;7.93;;;5.57;;
23747;SDS011;12054;53.662;10.126;2023-04-22T07:47:35;8.40;;;5.80;;
23747;SDS011;12054;53.662;10.126;2023-04-22T07:50:01;9.27;;;6.60;;
23747;SDS011;12054;53.662;10.126;2023-04-22T07:52:26;8.40;;;6.20;;
23747;SDS011;12054;53.662;10.126;2023-04-22T07:54:53;7.40;;;5.90;;
23747;SDS011;12054;53.662;10.126;2023-04-22T07:57:19;8.43;;;6.28;;
23747;SDS011;12054;53.662;10.126;2023-04-22T07:59:48;9.75;;;7.07;;
23747;SDS011;12054;53.662;10.126;2023-04-22T08:02:13;7.07;;;5.72;;
23747;SDS011;12054;53.662;10.126;2023-04-22T08:04:39;9.52;;;6.78;;
23747;SDS011;12054;53.662;10.126;2023-04-22T08:07:05;8.65;;;6.82;;
23747;SDS011;12054;53.662;10.126;2023-04-22T08:09:30;8.18;;;6.88;;
23747;SDS011;12054;53.662;10.126;2023-04-22T08:11:56;9.15;;;6.60;;
23747;SDS011;12054;53.662;10.126;2023-04-22T08:14:22;8.18;;;6.28;;
23747;SDS011;12054;53.662;10.126;2023-04-22T08:16:47;8.15;;;6.55;;
23747;SDS011;12054;53.662;10.126;2023-04-22T08:19:15;9.15;;;5.88;;
23747;SDS011;12054;53.662;10.126;2023-04-22T08:21:41;8.55;;;6.43;;
23747;SDS011;12054;53.662;10.126;2023-04-22T08:24:06;8.20;;;6.85;;
23747;SDS011;12054;53.662;10.126;2023-04-22T08:26:32;8.82;;;6.53;;
23747;SDS011;12054;53.662;10.126;2023-04-22T08:28:59;11.18;;;6.20;;
23747;SDS011;12054;53.662;10.126;2023-04-22T08:31:25;8.32;;;6.63;;
23747;SDS011;12054;53.662;10.126;2023-04-22T08:33:50;8.43;;;6.95;;
23747;SDS011;12054;53.662;10.126;2023-04-22T08:36:16;9.07;;;6.80;;
23747;SDS011;12054;53.662;10.126;2023-04-22T08:38:42;8.57;;;6.35;;
23747;SDS011;12054;53.662;10.126;2023-04-22T08:41:08;13.20;;;7.03;;
23747;SDS011;12054;53.662;10.126;2023-04-22T08:43:34;10.70;;;6.75;;
23747;SDS011;12054;53.662;10.126;2023-04-22T08:46:00;9.70;;;6.75;;
23747;SDS011;12054;53.662;10.126;2023-04-22T08:48:26;8.18;;;6.75;;
23747;SDS011;12054;53.662;10.126;2023-04-22T08:50:51;8.00;;;6.93;;
23747;SDS011;12054;53.662;10.126;2023-04-22T08:53:19;9.10;;;7.10;;
23747;SDS011;12054;53.662;10.126;2023-04-22T08:55:45;8.80;;;7.05;;
23747;SDS011;12054;53.662;10.126;2023-04-22T08:58:13;7.85;;;6.70;;
23747;SDS011;12054;53.662;10.126;2023-04-22T09:00:39;9.15;;;6.85;;
23747;SDS011;12054;53.662;10.126;2023-04-22T09:03:07;8.75;;;6.93;;
23747;SDS011;12054;53.662;10.126;2023-04-22T09:05:33;7.85;;;6.28;;
23747;SDS011;12054;53.662;10.126;2023-04-22T09:08:01;10.00;;;7.15;;
23747;SDS011;12054;53.662;10.126;2023-04-22T09:10:28;7.60;;;6.45;;
23747;SDS011;12054;53.662;10.126;2023-04-22T09:12:54;9.35;;;5.95;;
23747;SDS011;12054;53.662;10.126;2023-04-22T09:15:22;8.95;;;6.80;;
23747;SDS011;12054;53.662;10.126;2023-04-22T09:17:49;8.07;;;6.78;;
23747;SDS011;12054;53.662;10.126;2023-04-22T09:20:16;7.32;;;6.25;;
23747;SDS011;12054;53.662;10.126;2023-04-22T09:22:45;7.82;;;6.63;;
23747;SDS011;12054;53.662;10.126;2023-04-22T09:25:15;8.50;;;6.80;;
23747;SDS011;12054;53.662;10.126;2023-04-22T09:27:51;12.27;;;6.85;;
23747;SDS011;12054;53.662;10.126;2023-04-22T09:30:26;11.50;;;7.18;;
23747;SDS011;12054;53.662;10.126;2023-04-22T09:32:57;8.68;;;6.72;;
23747;SDS011;12054;53.662;10.126;2023-04-22T09:35:37;7.63;;;6.82;;
23747;SDS011;12054;53.662;10.126;2023-04-22T09:38:05;8.68;;;6.57;;
23747;SDS011;12054;53.662;10.126;2023-04-22T09:40:32;8.57;;;6.95;;
23747;SDS011;12054;53.662;10.126;2023-04-22T09:43:00;7.95;;;6.00;;
23747;SDS011;12054;53.662;10.126;2023-04-22T09:45:28;6.50;;;5.80;;
23747;SDS011;12054;53.662;10.126;2023-04-22T09:48:11;8.63;;;6.30;;
23747;SDS011;12054;53.662;10.126;2023-04-22T09:50:39;7.70;;;6.05;;
23747;SDS011;12054;53.662;10.126;2023-04-22T09:53:08;8.27;;;6.07;;
23747;SDS011;12054;53.662;10.126;2023-04-22T09:55:40;8.13;;;5.82;;
23747;SDS011;12054;53.662;10.126;2023-04-22T09:58:08;8.73;;;5.97;;
23747;SDS011;12054;53.662;10.126;2023-04-22T10:00:39;7.78;;;6.68;;
23747;SDS011;12054;53.662;10.126;2023-04-22T10:03:06;8.57;;;6.60;;
23747;SDS011;12054;53.662;10.126;2023-04-22T10:05:32;7.05;;;5.63;;
23747;SDS011;12054;53.662;10.126;2023-04-22T10:08:02;9.77;;;6.32;;
23747;SDS011;12054;53.662;10.126;2023-04-22T10:10:31;8.63;;;6.28;;
23747;SDS011;12054;53.662;10.126;2023-04-22T10:12:58;6.45;;;5.85;;
23747;SDS011;12054;53.662;10.126;2023-04-22T10:15:24;10.20;;;5.63;;
23747;SDS011;12054;53.662;10.126;2023-04-22T10:17:51;8.57;;;6.18;;
23747;SDS011;12054;53.662;10.126;2023-04-22T10:20:19;6.90;;;6.22;;
23747;SDS011;12054;53.662;10.126;2023-04-22T10:22:45;9.10;;;6.22;;
23747;SDS011;12054;53.662;10.126;2023-04-22T10:25:12;6.78;;;5.72;;
23747;SDS011;12054;53.662;10.126;2023-04-22T10:27:51;6.15;;;5.55;;
23747;SDS011;12054;53.662;10.126;2023-04-22T10:30:25;11.95;;;6.60;;
23747;SDS011;12054;53.662;10.126;2023-04-22T10:32:52;7.88;;;5.50;;
23747;SDS011;12054;53.662;10.126;2023-04-22T10:35:18;7.95;;;5.55;;
23747;SDS011;12054;53.662;10.126;2023-04-22T10:37:52;7.40;;;5.85;;
23747;SDS011;12054;53.662;10.126;2023-04-22T10:40:17;8.75;;;5.32;;
23747;SDS011;12054;53.662;10.126;2023-04-22T10:42:47;8.13;;;5.50;;
23747;SDS011;12054;53.662;10.126;2023-04-22T10:45:15;7.55;;;5.93;;
23747;SDS011;12054;53.662;10.126;2023-04-22T10:47:41;6.35;;;5.05;;
23747;SDS011;12054;53.662;10.126;2023-04-22T10:52:49;5.43;;;4.63;;
23747;SDS011;12054;53.662;10.126;2023-04-22T10:55:47;6.50;;;4.60;;
23747;SDS011;12054;53.662;10.126;2023-04-22T10:58:20;6.63;;;4.53;;
23747;SDS011;12054;53.662;10.126;2023-04-22T11:00:46;6.55;;;4.45;;
23747;SDS011;12054;53.662;10.126;2023-04-22T11:03:17;5.20;;;4.40;;
23747;SDS011;12054;53.662;10.126;2023-04-22T11:05:43;6.22;;;4.40;;
23747;SDS011;12054;53.662;10.126;2023-04-22T11:08:18;7.82;;;4.25;;
23747;SDS011;12054;53.662;10.126;2023-04-22T11:10:48;5.30;;;4.65;;
23747;SDS011;12054;53.662;10.126;2023-04-22T11:13:18;4.80;;;4.22;;
23747;SDS011;12054;53.662;10.126;2023-04-22T11:15:46;6.78;;;5.22;;
23747;SDS011;12054;53.662;10.126;2023-04-22T11:18:16;5.90;;;4.75;;
23747;SDS011;12054;53.662;10.126;2023-04-22T11:20:46;6.30;;;4.47;;
23747;SDS011;12054;53.662;10.126;2023-04-22T11:23:17;5.40;;;4.85;;
23747;SDS011;12054;53.662;10.126;2023-04-22T11:25:47;7.43;;;4.55;;
23747;SDS011;12054;53.662;10.126;2023-04-22T11:28:12;5.47;;;4.65;;
23747;SDS011;12054;53.662;10.126;2023-04-22T11:30:38;8.15;;;4.85;;
23747;SDS011;12054;53.662;10.126;2023-04-22T11:33:03;5.68;;;4.57;;
23747;SDS011;12054;53.662;10.126;2023-04-22T11:35:30;5.53;;;5.03;;
23747;SDS011;12054;53.662;10.126;2023-04-22T11:37:58;5.57;;;4.68;;
23747;SDS011;12054;53.662;10.126;2023-04-22T11:40:26;6.05;;;4.63;;
23747;SDS011;12054;53.662;10.126;2023-04-22T11:42:53;6.35;;;4.70;;
23747;SDS011;12054;53.662;10.126;2023-04-22T11:45:20;5.07;;;4.57;;
23747;SDS011;12054;53.662;10.126;2023-04-22T11:47:46;5.88;;;5.13;;
23747;SDS011;12054;53.662;10.126;2023-04-22T11:50:14;5.80;;;4.30;;
23747;SDS011;12054;53.662;10.126;2023-04-22T11:52:45;10.13;;;5.00;;
23747;SDS011;12054;53.662;10.126;2023-04-22T11:55:20;5.38;;;4.70;;
23747;SDS011;12054;53.662;10.126;2023-04-22T11:57:50;7.38;;;5.13;;
23747;SDS011;12054;53.662;10.126;2023-04-22T12:00:18;5.07;;;4.57;;
23747;SDS011;12054;53.662;10.126;2023-04-22T12:02:53;5.45;;;4.93;;
23747;SDS011;12054;53.662;10.126;2023-04-22T12:05:20;5.15;;;4.65;;
23747;SDS011;12054;53.662;10.126;2023-04-22T12:07:55;6.13;;;4.70;;
23747;SDS011;12054;53.662;10.126;2023-04-22T12:10:22;5.30;;;4.00;;
23747;SDS011;12054;53.662;10.126;2023-04-22T12:12:47;8.68;;;5.38;;
23747;SDS011;12054;53.662;10.126;2023-04-22T12:15:13;6.28;;;4.50;;
23747;SDS011;12054;53.662;10.126;2023-04-22T12:17:38;4.72;;;4.10;;
23747;SDS011;12054;53.662;10.126;2023-04-22T12:20:04;5.45;;;4.20;;
23747;SDS011;12054;53.662;10.126;2023-04-22T12:22:31;8.20;;;4.32;;
23747;SDS011;12054;53.662;10.126;2023-04-22T12:24:58;4.95;;;4.47;;
23747;SDS011;12054;53.662;10.126;2023-04-22T12:27:24;5.40;;;4.15;;
23747;SDS011;12054;53.662;10.126;2023-04-22T12:29:51;5.18;;;4.35;;
23747;SDS011;12054;53.662;10.126;2023-04-22T12:32:21;5.82;;;4.60;;
23747;SDS011;12054;53.662;10.126;2023-04-22T12:34:49;4.97;;;4.57;;
23747;SDS011;12054;53.662;10.126;2023-04-22T12:37:14;5.32;;;4.32;;
23747;SDS011;12054;53.662;10.126;2023-04-22T12:39:40;8.25;;;4.55;;
23747;SDS011;12054;53.662;10.126;2023-04-22T12:42:06;7.82;;;4.68;;
23747;SDS011;12054;53.662;10.126;2023-04-22T12:44:32;5.82;;;4.75;;
23747;SDS011;12054;53.662;10.126;2023-04-22T12:46:57;7.65;;;4.80;;
23747;SDS011;12054;53.662;10.126;2023-04-22T12:49:23;5.13;;;4.13;;
23747;SDS011;12054;53.662;10.126;2023-04-22T12:51:49;5.30;;;4.35;;
23747;SDS011;12054;53.662;10.126;2023-04-22T12:54:16;5.20;;;4.30;;
23747;SDS011;12054;53.662;10.126;2023-04-22T12:56:43;5.43;;;4.32;;
23747;SDS011;12054;53.662;10.126;2023-04-22T12:59:09;5.82;;;4.68;;
23747;SDS011;12054;53.662;10.126;2023-04-22T13:01:35;6.22;;;4.60;;
23747;SDS011;12054;53.662;10.126;2023-04-22T13:04:00;6.35;;;4.30;;
23747;SDS011;12054;53.662;10.126;2023-04-22T13:06:26;6.18;;;4.65;;
23747;SDS011;12054;53.662;10.126;2023-04-22T13:08:52;5.32;;;4.13;;
23747;SDS011;12054;53.662;10.126;2023-04-22T13:11:18;6.80;;;4.63;;
23747;SDS011;12054;53.662;10.126;2023-04-22T13:13:45;5.63;;;4.10;;
23747;SDS011;12054;53.662;10.126;2023-04-22T13:16:11;5.47;;;4.55;;
23747;SDS011;12054;53.662;10.126;2023-04-22T13:18:36;5.88;;;4.50;;
23747;SDS011;12054;53.662;10.126;2023-04-22T13:21:02;6.18;;;4.50;;
23747;SDS011;12054;53.662;10.126;2023-04-22T13:23:27;4.85;;;4.00;;
23747;SDS011;12054;53.662;10.126;2023-04-22T13:25:53;3.97;;;3.40;;
23747;SDS011;12054;53.662;10.126;2023-04-22T13:28:19;5.35;;;4.18;;
23747;SDS011;12054;53.662;10.126;2023-04-22T13:30:45;4.47;;;4.05;;
23747;SDS011;12054;53.662;10.126;2023-04-22T13:33:10;5.35;;;4.03;;
23747;SDS011;12054;53.662;10.126;2023-04-22T13:35:36;4.72;;;3.70;;
23747;SDS011;12054;53.662;10.126;2023-04-22T13:38:01;4.53;;;3.80;;
23747;SDS011;12054;53.662;10.126;2023-04-22T13:40:27;4.53;;;3.90;;
23747;SDS011;12054;53.662;10.126;2023-04-22T13:42:53;4.18;;;3.75;;
23747;SDS011;12054;53.662;10.126;2023-04-22T13:45:19;4.50;;;3.85;;
23747;SDS011;12054;53.662;10.126;2023-04-22T13:47:45;4.53;;;4.03;;
23747;SDS011;12054;53.662;10.126;2023-04-22T13:50:10;4.90;;;3.83;;
23747;SDS011;12054;53.662;10.126;2023-04-22T13:52:36;4.72;;;3.35;;
23747;SDS011;12054;53.662;10.126;2023-04-22T13:55:02;6.22;;;3.70;;
23747;SDS011;12054;53.662;10.126;2023-04-22T13:57:27;4.80;;;3.88;;
23747;SDS011;12054;53.662;10.126;2023-04-22T13:59:53;4.95;;;4.00;;
23747;SDS011;12054;53.662;10.126;2023-04-22T14:02:18;6.05;;;3.92;;
23747;SDS011;12054;53.662;10.126;2023-04-22T14:04:44;4.63;;;3.28;;
23747;SDS011;12054;53.662;10.126;2023-04-22T14:07:09;4.85;;;3.55;;
23747;SDS011;12054;53.662;10.126;2023-04-22T14:09:35;5.80;;;4.45;;
23747;SDS011;12054;53.662;10.126;2023-04-22T14:12:01;5.22;;;4.15;;
23747;SDS011;12054;53.662;10.126;2023-04-22T14:14:28;7.43;;;4.40;;
23747;SDS011;12054;53.662;10.126;2023-04-22T14:16:53;5.03;;;3.90;;
23747;SDS011;12054;53.662;10.126;2023-04-22T14:19:19;5.70;;;4.40;;
23747;SDS011;12054;53.662;10.126;2023-04-22T14:21:45;5.50;;;4.30;;
23747;SDS011;12054;53.662;10.126;2023-04-22T14:24:11;5.47;;;3.80;;
23747;SDS011;12054;53.662;10.126;2023-04-22T14:26:36;4.88;;;3.92;;
23747;SDS011;12054;53.662;10.126;2023-04-22T14:29:02;4.68;;;3.90;;
23747;SDS011;12054;53.662;10.126;2023-04-22T14:31:27;5.40;;;3.47;;